Time;durP1;ratioP1;P1;durP2;ratioP2;P2;SDS_P1;SDS_P2;PMS_P1;PMS_P2;Temp;Humidity;BMP_temperature;BMP_pressure;BME280_temperature;BME280_humidity;BME280_pressure;Samples;Min_cycle;Max_cycle;Signal;HPM_P1;HPM_P2
2022/10/30 00:00:33;;;;;;;7.10;3.47;;;;;;;;;;5000353;28;20029;-72
2022/10/30 00:02:59;;;;;;;6.63;3.80;;;;;;;;;;5000086;28;20048;-72
2022/10/30 00:05:24;;;;;;;6.57;3.58;;;;;;;;;;5000038;28;20135;-72
2022/10/30 00:07:50;;;;;;;5.45;4.03;;;;;;;;;;5016977;28;20376;-73
2022/10/30 00:10:16;;;;;;;5.30;4.20;;;;;;;;;;5034213;28;20044;-73
2022/10/30 00:12:42;;;;;;;4.68;3.78;;;;;;;;;;5034646;28;20045;-72
2022/10/30 00:15:08;;;;;;;6.30;3.90;;;;;;;;;;5018926;28;20481;-73
2022/10/30 00:17:34;;;;;;;4.70;4.05;;;;;;;;;;5003283;28;20139;-73
2022/10/30 00:20:00;;;;;;;4.50;3.38;;;;;;;;;;5003162;28;20183;-72
2022/10/30 00:22:25;;;;;;;4.18;3.78;;;;;;;;;;5002940;28;20135;-73
2022/10/30 00:24:51;;;;;;;3.50;3.20;;;;;;;;;;5003041;28;20370;-73
2022/10/30 00:27:17;;;;;;;4.70;3.45;;;;;;;;;;5003546;28;20462;-72
2022/10/30 00:29:43;;;;;;;6.05;4.00;;;;;;;;;;5019667;28;20036;-72
2022/10/30 00:32:08;;;;;;;5.43;3.70;;;;;;;;;;4954489;28;1376797;-72
2022/10/30 00:34:34;;;;;;;5.82;3.60;;;;;;;;;;5036927;28;20041;-73
2022/10/30 00:36:59;;;;;;;5.03;3.85;;;;;;;;;;5003868;28;20471;-72
2022/10/30 00:39:25;;;;;;;7.97;3.85;;;;;;;;;;5020288;28;20260;-73
2022/10/30 00:41:51;;;;;;;5.35;3.88;;;;;;;;;;5003664;28;20094;-73
2022/10/30 00:44:37;;;;;;;6.25;3.95;;;;;;;;;;5003272;28;20037;-73
2022/10/30 00:47:10;;;;;;;7.07;3.90;;;;;;;;;;5019045;28;20051;-72
2022/10/30 00:49:38;;;;;;;6.18;4.43;;;;;;;;;;5035598;28;20099;-72
2022/10/30 00:52:06;;;;;;;5.85;4.13;;;;;;;;;;5036434;28;20375;-73
2022/10/30 00:54:32;;;;;;;4.78;4.00;;;;;;;;;;5003372;28;20048;-73
2022/10/30 00:57:00;;;;;;;5.65;4.30;;;;;;;;;;5002955;28;20036;-72
2022/10/30 00:59:29;;;;;;;5.80;4.00;;;;;;;;;;5001755;28;20033;-73
2022/10/30 01:01:55;;;;;;;5.80;3.65;;;;;;;;;;5001059;28;20061;-72
2022/10/30 01:04:21;;;;;;;7.10;4.00;;;;;;;;;;5000936;28;20083;-73
2022/10/30 01:06:47;;;;;;;6.85;3.90;;;;;;;;;;5017338;28;20487;-72
2022/10/30 01:09:14;;;;;;;5.50;4.45;;;;;;;;;;5017274;28;20037;-73
2022/10/30 01:11:39;;;;;;;6.72;4.38;;;;;;;;;;5017215;28;20049;-72
2022/10/30 01:14:06;;;;;;;6.72;4.05;;;;;;;;;;5001994;28;20035;-73
2022/10/30 01:16:38;;;;;;;7.80;4.15;;;;;;;;;;5002523;28;20044;-73
2022/10/30 01:19:26;;;;;;;8.90;4.45;;;;;;;;;;5020167;28;20119;-71
2022/10/30 01:21:54;;;;;;;9.23;4.22;;;;;;;;;;5002849;28;20048;-72
2022/10/30 01:24:20;;;;;;;7.15;4.32;;;;;;;;;;5002574;28;20037;-72
2022/10/30 01:26:51;;;;;;;6.82;4.82;;;;;;;;;;5002171;28;20048;-72
2022/10/30 01:29:21;;;;;;;7.15;4.40;;;;;;;;;;5002824;28;20060;-73
2022/10/30 01:32:05;;;;;;;7.00;4.47;;;;;;;;;;5002708;28;20103;-72
2022/10/30 01:34:41;;;;;;;8.57;4.65;;;;;;;;;;5002356;28;20056;-74
2022/10/30 01:37:11;;;;;;;7.32;4.20;;;;;;;;;;5002757;28;20099;-73
2022/10/30 01:39:39;;;;;;;8.57;4.68;;;;;;;;;;5017852;28;20029;-73
2022/10/30 01:42:08;;;;;;;7.70;4.85;;;;;;;;;;5016913;28;20037;-73
2022/10/30 01:44:34;;;;;;;11.32;4.88;;;;;;;;;;5016661;28;20040;-73
2022/10/30 01:47:15;;;;;;;9.88;4.80;;;;;;;;;;5000155;28;20626;-73
2022/10/30 01:49:47;;;;;;;9.25;4.93;;;;;;;;;;5000531;28;20490;-73
2022/10/30 01:52:21;;;;;;;8.05;4.70;;;;;;;;;;5000002;28;20044;-72
2022/10/30 01:54:53;;;;;;;5.93;4.47;;;;;;;;;;5016420;28;20399;-72
2022/10/30 01:57:22;;;;;;;9.63;4.88;;;;;;;;;;5018575;28;20033;-72
2022/10/30 01:59:54;;;;;;;7.68;5.10;;;;;;;;;;5018774;28;20040;-72
2022/10/30 02:02:21;;;;;;;6.90;4.80;;;;;;;;;;5002015;28;20032;-71
2022/10/30 02:04:46;;;;;;;7.22;5.10;;;;;;;;;;5018310;28;20132;-72
2022/10/30 02:07:12;;;;;;;7.65;5.05;;;;;;;;;;5018486;28;20124;-71
2022/10/30 02:09:44;;;;;;;7.78;4.38;;;;;;;;;;5002816;28;20123;-71
2022/10/30 02:12:12;;;;;;;10.98;4.88;;;;;;;;;;5002565;28;20041;-71
2022/10/30 02:15:01;;;;;;;7.35;4.18;;;;;;;;;;5024068;28;20135;-72
2022/10/30 02:17:27;;;;;;;6.53;4.47;;;;;;;;;;5018130;28;20047;-72
2022/10/30 02:19:52;;;;;;;6.55;3.90;;;;;;;;;;5017981;28;20427;-73
2022/10/30 02:22:18;;;;;;;6.32;4.30;;;;;;;;;;5001804;28;20036;-72
2022/10/30 02:24:44;;;;;;;5.72;3.80;;;;;;;;;;5017983;28;20120;-71
2022/10/30 02:27:09;;;;;;;7.40;4.15;;;;;;;;;;5001869;28;20044;-72
2022/10/30 02:29:38;;;;;;;5.85;3.58;;;;;;;;;;5002112;28;20047;-72
2022/10/30 02:32:04;;;;;;;5.97;3.25;;;;;;;;;;5001300;28;20041;-72
2022/10/30 02:34:32;;;;;;;6.75;3.42;;;;;;;;;;5018371;28;20045;-72
2022/10/30 02:36:58;;;;;;;5.32;3.38;;;;;;;;;;5001381;28;20471;-72
2022/10/30 02:39:24;;;;;;;9.50;3.60;;;;;;;;;;5001562;28;20893;-71
2022/10/30 02:41:49;;;;;;;4.18;3.03;;;;;;;;;;5001468;28;20037;-71
2022/10/30 02:44:15;;;;;;;6.18;3.55;;;;;;;;;;5000610;28;20029;-72
2022/10/30 02:46:41;;;;;;;7.22;3.15;;;;;;;;;;5016806;28;20110;-72
2022/10/30 02:49:06;;;;;;;4.43;3.15;;;;;;;;;;4999889;28;20718;-72
2022/10/30 02:51:32;;;;;;;5.03;3.20;;;;;;;;;;5033221;28;20048;-73
2022/10/30 02:53:58;;;;;;;8.50;3.40;;;;;;;;;;5033259;28;20036;-72
2022/10/30 02:56:24;;;;;;;6.70;2.80;;;;;;;;;;5000870;28;20534;-72
2022/10/30 02:58:50;;;;;;;6.13;2.90;;;;;;;;;;5000677;28;20091;-72
2022/10/30 03:01:17;;;;;;;6.72;2.45;;;;;;;;;;5001440;28;20379;-72
2022/10/30 03:03:43;;;;;;;3.50;2.10;;;;;;;;;;5034537;28;20127;-72
2022/10/30 03:06:11;;;;;;;6.32;2.30;;;;;;;;;;5017540;28;20126;-72
2022/10/30 03:08:36;;;;;;;5.25;2.50;;;;;;;;;;5001278;28;20417;-72
2022/10/30 03:11:05;;;;;;;11.07;2.67;;;;;;;;;;5001262;28;20143;-73
2022/10/30 03:13:32;;;;;;;5.60;1.75;;;;;;;;;;5017646;28;20028;-72
2022/10/30 03:16:05;;;;;;;4.25;2.25;;;;;;;;;;5001038;28;20524;-72
2022/10/30 03:18:32;;;;;;;3.47;2.15;;;;;;;;;;5017915;28;20045;-72
2022/10/30 03:21:02;;;;;;;6.72;2.10;;;;;;;;;;5001769;28;20091;-74
2022/10/30 03:23:28;;;;;;;2.97;2.28;;;;;;;;;;5001250;28;20489;-75
2022/10/30 03:25:54;;;;;;;3.85;2.03;;;;;;;;;;5017248;28;20157;-72
2022/10/30 03:28:25;;;;;;;6.85;2.28;;;;;;;;;;5017346;28;20041;-71
2022/10/30 03:30:57;;;;;;;3.92;2.13;;;;;;;;;;5017505;28;20352;-71
2022/10/30 03:33:22;;;;;;;3.33;2.13;;;;;;;;;;5001458;28;20053;-71
2022/10/30 03:35:49;;;;;;;4.43;1.90;;;;;;;;;;5017492;28;20142;-71
2022/10/30 03:38:15;;;;;;;7.05;2.08;;;;;;;;;;5018724;28;20116;-72
2022/10/30 03:40:41;;;;;;;6.38;2.15;;;;;;;;;;5002167;28;20098;-73
2022/10/30 03:43:07;;;;;;;3.40;1.73;;;;;;;;;;5000893;28;20475;-72
2022/10/30 03:45:33;;;;;;;7.28;1.98;;;;;;;;;;5000800;28;20376;-72
2022/10/30 03:48:01;;;;;;;3.33;1.75;;;;;;;;;;5001119;28;20147;-72
2022/10/30 03:50:27;;;;;;;4.40;1.88;;;;;;;;;;4988060;28;20140;-72
2022/10/30 03:52:54;;;;;;;4.95;1.95;;;;;;;;;;5021008;28;20100;-71
2022/10/30 03:55:20;;;;;;;4.53;1.90;;;;;;;;;;5004347;28;20067;-71
2022/10/30 03:57:45;;;;;;;3.65;1.50;;;;;;;;;;5004721;28;20065;-77
2022/10/30 04:00:16;;;;;;;5.10;1.60;;;;;;;;;;5005592;28;20071;-75
2022/10/30 04:02:56;;;;;;;;;;;;;;;;;;5020644;28;20052;-73
2022/10/30 04:05:24;;;;;;;6.15;1.70;;;;;;;;;;5004301;28;19946;-72
2022/10/30 04:07:56;;;;;;;4.43;2.05;;;;;;;;;;5020468;28;20390;-70
2022/10/30 04:10:23;;;;;;;3.75;1.88;;;;;;;;;;5036743;28;20120;-69
2022/10/30 04:12:49;;;;;;;1.92;1.50;;;;;;;;;;5020638;28;20570;-69
2022/10/30 04:15:14;;;;;;;3.55;1.70;;;;;;;;;;5036703;28;20399;-70
2022/10/30 04:17:47;;;;;;;5.45;1.65;;;;;;;;;;5020247;28;20025;-70
2022/10/30 04:20:12;;;;;;;6.40;1.45;;;;;;;;;;5020159;28;20127;-69
2022/10/30 04:22:38;;;;;;;3.42;1.65;;;;;;;;;;5020239;28;20112;-69
2022/10/30 04:25:04;;;;;;;2.92;1.40;;;;;;;;;;5003616;28;20041;-69
2022/10/30 04:27:37;;;;;;;4.70;1.50;;;;;;;;;;5020462;28;20040;-69
2022/10/30 04:30:03;;;;;;;3.58;1.42;;;;;;;;;;5019775;28;20159;-69
2022/10/30 04:32:30;;;;;;;2.63;1.33;;;;;;;;;;5019663;28;20060;-72
2022/10/30 04:34:55;;;;;;;3.92;1.67;;;;;;;;;;5020157;28;20391;-71
2022/10/30 04:37:21;;;;;;;3.28;1.17;;;;;;;;;;5003564;28;20036;-68
2022/10/30 04:39:48;;;;;;;2.60;1.23;;;;;;;;;;5003787;28;20064;-72
2022/10/30 04:42:18;;;;;;;2.15;1.10;;;;;;;;;;5020866;28;20120;-77
2022/10/30 04:44:44;;;;;;;3.20;1.30;;;;;;;;;;5019581;28;20186;-74
2022/10/30 04:47:10;;;;;;;2.97;1.10;;;;;;;;;;4996405;28;20455;-69
2022/10/30 04:49:36;;;;;;;2.90;1.20;;;;;;;;;;5002430;28;20044;-72
2022/10/30 04:52:02;;;;;;;3.30;1.08;;;;;;;;;;5018841;28;20605;-71
2022/10/30 04:54:28;;;;;;;1.95;1.10;;;;;;;;;;5019219;28;20036;-71
2022/10/30 04:56:53;;;;;;;2.42;1.13;;;;;;;;;;5035482;28;20049;-72
2022/10/30 04:59:20;;;;;;;2.47;1.20;;;;;;;;;;5019022;28;20055;-75
2022/10/30 05:01:46;;;;;;;2.92;1.20;;;;;;;;;;5001365;28;20036;-74
2022/10/30 05:04:11;;;;;;;1.35;1.10;;;;;;;;;;5002760;28;20069;-74
2022/10/30 05:06:39;;;;;;;3.38;1.30;;;;;;;;;;5002879;28;20080;-73
2022/10/30 05:09:06;;;;;;;8.65;1.45;;;;;;;;;;4994885;28;20513;-74
2022/10/30 05:11:39;;;;;;;3.45;1.13;;;;;;;;;;4995252;28;20048;-75
2022/10/30 05:14:05;;;;;;;5.20;1.15;;;;;;;;;;4996065;28;20313;-77
2022/10/30 05:16:32;;;;;;;3.53;1.02;;;;;;;;;;4995974;28;20124;-79
2022/10/30 05:18:59;;;;;;;5.63;2.33;;;;;;;;;;4995779;28;20103;-78
2022/10/30 05:21:25;;;;;;;1.85;1.20;;;;;;;;;;4994934;28;20416;-78
2022/10/30 05:23:52;;;;;;;5.40;1.38;;;;;;;;;;4996085;28;20037;-75
2022/10/30 05:26:18;;;;;;;3.05;1.15;;;;;;;;;;4996000;28;20046;-72
2022/10/30 05:28:44;;;;;;;4.90;1.30;;;;;;;;;;4979340;28;20044;-73
2022/10/30 05:31:09;;;;;;;3.47;1.50;;;;;;;;;;4993852;28;20501;-73
2022/10/30 05:33:55;;;;;;;3.22;1.20;;;;;;;;;;4973135;28;20074;-73
2022/10/30 05:36:22;;;;;;;4.15;1.15;;;;;;;;;;5009986;28;20394;-72
2022/10/30 05:38:49;;;;;;;3.58;1.10;;;;;;;;;;4993306;28;20041;-72
2022/10/30 05:41:25;;;;;;;3.63;1.05;;;;;;;;;;4976168;28;20084;-70
2022/10/30 05:43:51;;;;;;;2.78;1.10;;;;;;;;;;4993398;28;20030;-71
2022/10/30 05:46:17;;;;;;;5.03;1.20;;;;;;;;;;4994168;28;20476;-72
2022/10/30 05:48:46;;;;;;;8.05;1.63;;;;;;;;;;4995154;28;20068;-71
2022/10/30 05:51:12;;;;;;;4.38;1.30;;;;;;;;;;4994584;28;20475;-72
2022/10/30 05:53:42;;;;;;;3.97;1.00;;;;;;;;;;4995220;28;20491;-73
2022/10/30 05:56:08;;;;;;;3.03;1.20;;;;;;;;;;5011609;28;20042;-73
2022/10/30 05:58:35;;;;;;;4.43;1.10;;;;;;;;;;4979321;28;20087;-72
2022/10/30 06:01:06;;;;;;;3.40;1.00;;;;;;;;;;4994582;28;20223;-75
2022/10/30 06:03:42;;;;;;;4.40;1.17;;;;;;;;;;5011730;28;20029;-75
2022/10/30 06:06:08;;;;;;;6.00;1.48;;;;;;;;;;4978984;28;20073;-75
2022/10/30 06:08:34;;;;;;;3.97;1.40;;;;;;;;;;5011825;28;20073;-73
2022/10/30 06:11:10;;;;;;;4.07;1.10;;;;;;;;;;5010386;28;20065;-72
2022/10/30 06:13:39;;;;;;;4.20;1.20;;;;;;;;;;4994578;28;20025;-73
2022/10/30 06:16:10;;;;;;;5.22;1.20;;;;;;;;;;4994813;28;20049;-73
2022/10/30 06:18:54;;;;;;;6.55;1.10;;;;;;;;;;4994780;28;20037;-74
2022/10/30 06:21:20;;;;;;;2.50;1.20;;;;;;;;;;4978437;28;20102;-73
2022/10/30 06:24:08;;;;;;;4.68;1.00;;;;;;;;;;4994616;28;20050;-74
2022/10/30 06:26:58;;;;;;;4.25;1.10;;;;;;;;;;4978325;28;20495;-75
2022/10/30 06:29:23;;;;;;;2.15;1.00;;;;;;;;;;4978856;28;20072;-74
2022/10/30 06:31:49;;;;;;;4.90;1.17;;;;;;;;;;4993868;28;20044;-74
2022/10/30 06:34:15;;;;;;;6.07;1.25;;;;;;;;;;4994617;28;20962;-75
2022/10/30 06:36:41;;;;;;;4.75;1.30;;;;;;;;;;5011391;28;20050;-74
2022/10/30 06:39:07;;;;;;;1.45;0.85;;;;;;;;;;4994902;28;20030;-74
2022/10/30 06:41:42;;;;;;;3.13;0.90;;;;;;;;;;4994453;28;20041;-74
2022/10/30 06:44:26;;;;;;;2.72;0.80;;;;;;;;;;4995409;28;20543;-70
2022/10/30 06:46:52;;;;;;;0.77;0.60;;;;;;;;;;4986307;28;20515;-74
2022/10/30 06:49:18;;;;;;;2.47;0.90;;;;;;;;;;4965784;28;20030;-74
2022/10/30 06:51:44;;;;;;;6.07;1.02;;;;;;;;;;4978527;28;20041;-74
2022/10/30 06:54:10;;;;;;;3.85;1.33;;;;;;;;;;4994635;28;20029;-74
2022/10/30 06:56:38;;;;;;;4.65;1.10;;;;;;;;;;4994488;28;20033;-73
2022/10/30 06:59:25;;;;;;;2.53;0.98;;;;;;;;;;4994610;28;20038;-75
2022/10/30 07:02:13;;;;;;;;;;;;;;;;;;4988726;28;20581;-73
2022/10/30 07:04:50;;;;;;;2.90;0.88;;;;;;;;;;4994880;28;19914;-74
2022/10/30 07:07:20;;;;;;;1.35;0.80;;;;;;;;;;4978306;28;20042;-74
2022/10/30 07:09:46;;;;;;;2.22;0.80;;;;;;;;;;4994628;28;20044;-74
2022/10/30 07:12:13;;;;;;;2.45;1.88;;;;;;;;;;4994312;28;20465;-74
2022/10/30 07:14:58;;;;;;;1.13;0.70;;;;;;;;;;4994559;28;20030;-71
2022/10/30 07:17:42;;;;;;;1.40;0.82;;;;;;;;;;4994431;28;20099;-72
2022/10/30 07:20:17;;;;;;;2.20;0.98;;;;;;;;;;4963636;28;20042;-74
2022/10/30 07:22:42;;;;;;;3.15;0.85;;;;;;;;;;4994499;28;20088;-74
2022/10/30 07:25:08;;;;;;;0.75;0.57;;;;;;;;;;4997393;28;20033;-75
2022/10/30 07:27:49;;;;;;;3.00;1.65;;;;;;;;;;4998424;28;20061;-74
2022/10/30 07:30:34;;;;;;;2.78;1.10;;;;;;;;;;4984629;28;20034;-74
2022/10/30 07:33:26;;;;;;;3.00;0.82;;;;;;;;;;4996232;28;20054;-74
2022/10/30 07:36:17;;;;;;;5.22;2.10;;;;;;;;;;4982982;28;20042;-74
2022/10/30 07:38:51;;;;;;;2.03;1.10;;;;;;;;;;4997213;28;20052;-75
2022/10/30 07:41:26;;;;;;;1.75;0.90;;;;;;;;;;4998193;28;20081;-74
2022/10/30 07:44:11;;;;;;;1.63;0.90;;;;;;;;;;5014719;28;20168;-75
2022/10/30 07:46:48;;;;;;;3.50;0.75;;;;;;;;;;4981750;28;20049;-75
2022/10/30 07:49:23;;;;;;;2.67;0.85;;;;;;;;;;4997966;28;20081;-74
2022/10/30 07:51:56;;;;;;;4.35;0.68;;;;;;;;;;4998213;28;20038;-74
2022/10/30 07:54:21;;;;;;;2.45;0.80;;;;;;;;;;4997590;28;20061;-75
2022/10/30 07:56:47;;;;;;;0.55;0.50;;;;;;;;;;4997916;28;20030;-76
2022/10/30 07:59:18;;;;;;;3.15;0.98;;;;;;;;;;4998190;28;20041;-76
2022/10/30 08:02:19;;;;;;;3.05;0.80;;;;;;;;;;4992799;28;20045;-76
2022/10/30 08:05:11;;;;;;;2.45;0.80;;;;;;;;;;4997434;28;20087;-75
2022/10/30 08:07:58;;;;;;;1.70;0.85;;;;;;;;;;4997883;28;20038;-75
2022/10/30 08:10:25;;;;;;;3.03;0.80;;;;;;;;;;5014001;28;20444;-74
2022/10/30 08:12:50;;;;;;;1.77;1.00;;;;;;;;;;4997542;28;20148;-75
2022/10/30 08:15:16;;;;;;;3.25;0.82;;;;;;;;;;4997438;28;20463;-75
2022/10/30 08:17:43;;;;;;;3.00;0.80;;;;;;;;;;4981401;28;20038;-76
2022/10/30 08:20:09;;;;;;;6.15;1.25;;;;;;;;;;5014247;28;20121;-75
2022/10/30 08:22:42;;;;;;;3.58;0.98;;;;;;;;;;4997498;28;20040;-74
2022/10/30 08:25:08;;;;;;;2.50;1.05;;;;;;;;;;5013768;28;20041;-75
2022/10/30 08:27:34;;;;;;;2.42;1.27;;;;;;;;;;4997483;28;20431;-72
2022/10/30 08:29:59;;;;;;;3.92;1.00;;;;;;;;;;4997542;28;20026;-76
2022/10/30 08:32:25;;;;;;;5.07;1.00;;;;;;;;;;4996997;28;20058;-75
2022/10/30 08:35:11;;;;;;;2.25;0.77;;;;;;;;;;4989964;28;20133;-74
2022/10/30 08:37:37;;;;;;;1.75;0.70;;;;;;;;;;4997101;28;20144;-73
2022/10/30 08:40:03;;;;;;;1.20;0.50;;;;;;;;;;4997200;28;20029;-71
2022/10/30 08:42:52;;;;;;;1.98;0.60;;;;;;;;;;5013662;28;20124;-78
2022/10/30 08:45:18;;;;;;;3.33;1.08;;;;;;;;;;5013371;28;20146;-76
2022/10/30 08:48:02;;;;;;;1.48;0.60;;;;;;;;;;4981041;28;20387;-73
2022/10/30 08:50:29;;;;;;;2.45;0.70;;;;;;;;;;4997205;28;20038;-74
2022/10/30 08:52:58;;;;;;;4.03;0.70;;;;;;;;;;5013272;28;20053;-73
2022/10/30 08:55:24;;;;;;;2.97;0.73;;;;;;;;;;4980591;28;20093;-73
2022/10/30 08:57:50;;;;;;;1.92;0.70;;;;;;;;;;5013098;28;20049;-74
2022/10/30 09:00:15;;;;;;;2.17;0.70;;;;;;;;;;4996745;28;20042;-75
2022/10/30 09:02:59;;;;;;;0.93;0.60;;;;;;;;;;4996718;28;20487;-73
2022/10/30 09:05:45;;;;;;;1.33;0.52;;;;;;;;;;4996559;28;20080;-73
2022/10/30 09:08:13;;;;;;;1.17;0.50;;;;;;;;;;4996340;28;20065;-75
2022/10/30 09:10:59;;;;;;;5.35;0.88;;;;;;;;;;4986288;28;20437;-75
2022/10/30 09:13:25;;;;;;;2.35;0.95;;;;;;;;;;4980360;28;20042;-76
2022/10/30 09:15:52;;;;;;;4.40;0.65;;;;;;;;;;4996616;28;20030;-75
2022/10/30 09:18:18;;;;;;;2.20;0.50;;;;;;;;;;5013273;28;20096;-74
2022/10/30 09:20:47;;;;;;;6.25;0.82;;;;;;;;;;4980542;28;20426;-75
2022/10/30 09:23:13;;;;;;;1.17;0.60;;;;;;;;;;4980265;28;20096;-72
2022/10/30 09:25:42;;;;;;;0.60;0.40;;;;;;;;;;4995974;28;20370;-71
2022/10/30 09:28:15;;;;;;;2.50;0.68;;;;;;;;;;5012879;28;20041;-72
2022/10/30 09:31:01;;;;;;;3.63;0.70;;;;;;;;;;4996284;28;20030;-73
2022/10/30 09:33:29;;;;;;;1.80;0.60;;;;;;;;;;4995976;28;20053;-74
2022/10/30 09:36:14;;;;;;;0.98;0.65;;;;;;;;;;4995607;28;20384;-74
2022/10/30 09:38:42;;;;;;;1.70;0.82;;;;;;;;;;4996033;28;20082;-73
2022/10/30 09:41:30;;;;;;;1.60;0.77;;;;;;;;;;4996014;28;20089;-74
2022/10/30 09:43:56;;;;;;;1.48;0.80;;;;;;;;;;4995873;28;20506;-74
2022/10/30 09:46:28;;;;;;;4.78;1.23;;;;;;;;;;4978892;28;20082;-73
2022/10/30 09:49:06;;;;;;;3.08;1.05;;;;;;;;;;4979487;28;20100;-72
2022/10/30 09:51:33;;;;;;;1.25;0.95;;;;;;;;;;4963951;28;20361;-73
2022/10/30 09:53:59;;;;;;;1.15;0.82;;;;;;;;;;4979492;28;20064;-72
2022/10/30 09:56:29;;;;;;;;;;;;;;;;;;4968801;28;20040;-77
2022/10/30 09:59:04;;;;;;;2.60;0.95;;;;;;;;;;4979570;28;20011;-74
2022/10/30 10:01:40;;;;;;;5.53;0.93;;;;;;;;;;4998118;28;20056;-70
2022/10/30 10:04:26;;;;;;;3.28;1.00;;;;;;;;;;5005442;28;20037;-73
2022/10/30 10:07:24;;;;;;;6.97;3.28;;;;;;;;;;4953797;28;20371;-68
2022/10/30 10:10:05;;;;;;;3.20;1.63;;;;;;;;;;4992058;28;20029;-68
2022/10/30 10:12:37;;;;;;;1.77;0.90;;;;;;;;;;4980952;28;20132;-66
2022/10/30 10:15:06;;;;;;;4.72;2.25;;;;;;;;;;4984792;28;20591;-68
2022/10/30 10:17:38;;;;;;;5.10;1.40;;;;;;;;;;4993931;28;20467;-69
2022/10/30 10:20:04;;;;;;;4.55;1.30;;;;;;;;;;5004828;28;20030;-70
2022/10/30 10:22:39;;;;;;;1.48;0.60;;;;;;;;;;4987256;28;20041;-68
2022/10/30 10:25:10;;;;;;;1.52;0.73;;;;;;;;;;5002077;28;20519;-74
2022/10/30 10:27:42;;;;;;;3.90;1.20;;;;;;;;;;4972474;28;20110;-71
2022/10/30 10:30:14;;;;;;;1.55;1.38;;;;;;;;;;4993709;28;20033;-68
2022/10/30 10:32:39;;;;;;;2.88;0.80;;;;;;;;;;5023061;28;20050;-70
2022/10/30 10:35:23;;;;;;;1.85;0.80;;;;;;;;;;5021910;28;20383;-68
2022/10/30 10:37:52;;;;;;;1.60;1.00;;;;;;;;;;5004053;28;20029;-69
2022/10/30 10:40:17;;;;;;;3.58;0.80;;;;;;;;;;5011750;28;20056;-68
2022/10/30 10:42:51;;;;;;;2.55;0.80;;;;;;;;;;4986031;28;20538;-69
2022/10/30 10:45:25;;;;;;;0.88;0.55;;;;;;;;;;5002329;28;20036;-70
2022/10/30 10:48:09;;;;;;;0.75;0.55;;;;;;;;;;5001094;28;20092;-71
2022/10/30 10:50:39;;;;;;;6.15;0.90;;;;;;;;;;4990355;28;20436;-68
2022/10/30 10:53:20;;;;;;;2.22;0.70;;;;;;;;;;5021448;28;20064;-70
2022/10/30 10:55:48;;;;;;;8.00;1.13;;;;;;;;;;4987120;28;20679;-69
2022/10/30 10:58:31;;;;;;;2.13;1.00;;;;;;;;;;5033300;28;20479;-69
2022/10/30 11:00:57;;;;;;;4.25;0.90;;;;;;;;;;5002094;28;20563;-69
2022/10/30 11:03:41;;;;;;;5.00;0.82;;;;;;;;;;5001353;28;20131;-69
2022/10/30 11:06:21;;;;;;;3.42;0.85;;;;;;;;;;5001426;28;20068;-67
2022/10/30 11:08:47;;;;;;;1.98;1.00;;;;;;;;;;4985419;28;20425;-72
2022/10/30 11:11:13;;;;;;;1.25;1.02;;;;;;;;;;5017449;28;20494;-70
2022/10/30 11:13:40;;;;;;;3.28;1.20;;;;;;;;;;4985857;28;20057;-71
2022/10/30 11:16:12;;;;;;;1.60;0.80;;;;;;;;;;4986731;28;20053;-72
2022/10/30 11:18:38;;;;;;;2.50;0.95;;;;;;;;;;5008735;28;20040;-71
2022/10/30 11:21:15;;;;;;;1.98;0.80;;;;;;;;;;5003408;28;20037;-72
2022/10/30 11:23:42;;;;;;;2.03;1.20;;;;;;;;;;5003580;28;20029;-73
2022/10/30 11:26:17;;;;;;;4.93;0.88;;;;;;;;;;5003078;28;20178;-71
2022/10/30 11:28:42;;;;;;;3.17;1.95;;;;;;;;;;5019352;28;20036;-72
2022/10/30 11:31:33;;;;;;;4.20;1.13;;;;;;;;;;4995868;28;20056;-72
2022/10/30 11:34:17;;;;;;;2.60;1.20;;;;;;;;;;4996518;28;20053;-72
2022/10/30 11:36:44;;;;;;;3.38;1.08;;;;;;;;;;4980247;28;20088;-73
2022/10/30 11:39:16;;;;;;;2.80;1.02;;;;;;;;;;4996523;28;20122;-72
2022/10/30 11:41:54;;;;;;;3.33;0.73;;;;;;;;;;4996067;28;20065;-72
2022/10/30 11:44:20;;;;;;;3.72;0.80;;;;;;;;;;4980200;28;20076;-72
2022/10/30 11:46:46;;;;;;;4.50;1.10;;;;;;;;;;4979903;28;20049;-71
2022/10/30 11:49:23;;;;;;;1.67;1.27;;;;;;;;;;4980274;28;20480;-76
2022/10/30 11:51:49;;;;;;;4.15;1.40;;;;;;;;;;4979818;28;20076;-74
2022/10/30 11:54:18;;;;;;;1.42;0.70;;;;;;;;;;4996637;28;20065;-73
2022/10/30 11:56:47;;;;;;;1.75;0.80;;;;;;;;;;5012575;28;20049;-73
2022/10/30 11:59:17;;;;;;;1.17;0.77;;;;;;;;;;4996252;28;20456;-73
2022/10/30 12:01:56;;;;;;;1.80;1.08;;;;;;;;;;4979621;28;20064;-74
2022/10/30 12:04:23;;;;;;;2.28;0.93;;;;;;;;;;4979998;28;20495;-73
2022/10/30 12:07:07;;;;;;;1.27;0.85;;;;;;;;;;4996324;28;20046;-72
2022/10/30 12:09:41;;;;;;;2.25;0.90;;;;;;;;;;4979766;28;20079;-71
2022/10/30 12:12:11;;;;;;;2.90;0.95;;;;;;;;;;4995434;28;20084;-71
2022/10/30 12:14:36;;;;;;;3.67;1.10;;;;;;;;;;4980652;28;20042;-71
2022/10/30 12:17:03;;;;;;;4.97;0.98;;;;;;;;;;4996615;28;20029;-72
2022/10/30 12:19:31;;;;;;;5.85;1.13;;;;;;;;;;4995609;28;20750;-73
2022/10/30 12:21:57;;;;;;;2.63;1.00;;;;;;;;;;4995285;28;20140;-72
2022/10/30 12:24:23;;;;;;;2.40;0.90;;;;;;;;;;4979603;28;20072;-72
2022/10/30 12:26:50;;;;;;;2.03;1.10;;;;;;;;;;4979549;28;20050;-73
2022/10/30 12:29:17;;;;;;;2.25;0.90;;;;;;;;;;4979866;28;20384;-72
2022/10/30 12:31:49;;;;;;;3.15;1.10;;;;;;;;;;5011986;28;20045;-72
2022/10/30 12:34:24;;;;;;;2.08;1.00;;;;;;;;;;4981963;28;20586;-67
2022/10/30 12:36:52;;;;;;;2.30;1.50;;;;;;;;;;4994193;28;20037;-68
2022/10/30 12:39:39;;;;;;;2.90;1.00;;;;;;;;;;4972429;28;20029;-68
2022/10/30 12:42:07;;;;;;;6.75;1.40;;;;;;;;;;4993836;28;20068;-67
2022/10/30 12:44:35;;;;;;;2.58;1.08;;;;;;;;;;5020497;28;20117;-68
2022/10/30 12:47:07;;;;;;;4.85;0.93;;;;;;;;;;4977876;28;20559;-68
2022/10/30 12:49:35;;;;;;;1.30;1.00;;;;;;;;;;4978045;28;20142;-68
2022/10/30 12:52:08;;;;;;;6.30;1.25;;;;;;;;;;4993394;28;20034;-68
2022/10/30 12:54:43;;;;;;;1.20;0.80;;;;;;;;;;5011108;28;20057;-71
2022/10/30 12:57:08;;;;;;;5.90;1.17;;;;;;;;;;5005632;28;20482;-71
2022/10/30 12:59:53;;;;;;;2.25;0.90;;;;;;;;;;5051956;28;20037;-70
2022/10/30 13:02:32;;;;;;;2.75;0.95;;;;;;;;;;5001120;28;20046;-68
2022/10/30 13:05:00;;;;;;;4.35;0.88;;;;;;;;;;5017926;28;20069;-70
2022/10/30 13:07:29;;;;;;;2.92;0.70;;;;;;;;;;5033712;28;20048;-68
2022/10/30 13:10:13;;;;;;;5.45;1.42;;;;;;;;;;5001484;28;20033;-68
2022/10/30 13:12:40;;;;;;;2.33;0.82;;;;;;;;;;5016701;28;20100;-68
2022/10/30 13:15:19;;;;;;;1.48;1.00;;;;;;;;;;5052460;28;20071;-69
2022/10/30 13:17:45;;;;;;;10.05;1.80;;;;;;;;;;5034919;28;20041;-69
2022/10/30 13:20:14;;;;;;;5.32;1.13;;;;;;;;;;5017819;28;20083;-70
2022/10/30 13:22:46;;;;;;;1.13;0.70;;;;;;;;;;5016491;28;20035;-69
2022/10/30 13:25:21;;;;;;;1.63;1.20;;;;;;;;;;5017418;28;20123;-70
2022/10/30 13:27:57;;;;;;;3.38;1.75;;;;;;;;;;5018344;28;20041;-69
2022/10/30 13:30:26;;;;;;;5.90;3.72;;;;;;;;;;5017330;28;20051;-69
2022/10/30 13:32:54;;;;;;;4.18;2.80;;;;;;;;;;5017139;28;20039;-69
2022/10/30 13:35:49;;;;;;;3.95;1.88;;;;;;;;;;5001129;28;20045;-70
2022/10/30 13:38:24;;;;;;;4.47;2.40;;;;;;;;;;4964986;28;20093;-70
2022/10/30 13:40:49;;;;;;;13.50;7.82;;;;;;;;;;5017342;28;20094;-71
2022/10/30 13:43:25;;;;;;;4.32;2.97;;;;;;;;;;5000324;28;20049;-68
2022/10/30 13:46:09;;;;;;;6.22;2.58;;;;;;;;;;5017527;28;20045;-71
2022/10/30 13:48:58;;;;;;;1.00;0.98;;;;;;;;;;5017814;28;20040;-69
2022/10/30 13:51:31;;;;;;;5.15;3.10;;;;;;;;;;5025007;28;20032;-70
2022/10/30 13:54:00;;;;;;;4.43;1.17;;;;;;;;;;5017627;28;20997;-70
2022/10/30 13:56:26;;;;;;;1.75;0.95;;;;;;;;;;5017372;28;20029;-70
2022/10/30 13:59:11;;;;;;;1.35;1.00;;;;;;;;;;5034031;28;20568;-70
2022/10/30 14:01:40;;;;;;;2.67;1.10;;;;;;;;;;5002127;28;20042;-67
2022/10/30 14:04:18;;;;;;;2.42;0.90;;;;;;;;;;4978172;28;20496;-71
2022/10/30 14:06:52;;;;;;;3.45;1.27;;;;;;;;;;4994198;28;20046;-69
2022/10/30 14:09:38;;;;;;;4.07;1.00;;;;;;;;;;4977383;28;20041;-69
2022/10/30 14:12:22;;;;;;;1.90;1.55;;;;;;;;;;4977266;28;20041;-70
2022/10/30 14:14:48;;;;;;;0.90;0.90;;;;;;;;;;4994341;28;20091;-68
2022/10/30 14:17:16;;;;;;;0.90;0.80;;;;;;;;;;4977780;28;20034;-72
2022/10/30 14:20:01;;;;;;;1.52;1.00;;;;;;;;;;4977403;28;20563;-68
2022/10/30 14:22:28;;;;;;;6.32;1.23;;;;;;;;;;4961236;28;20042;-72
2022/10/30 14:24:53;;;;;;;1.02;0.93;;;;;;;;;;4978850;28;20030;-69
2022/10/30 14:27:29;;;;;;;1.75;1.33;;;;;;;;;;4970432;28;20055;-68
2022/10/30 14:29:55;;;;;;;5.38;1.30;;;;;;;;;;5003805;28;20434;-67
2022/10/30 14:32:21;;;;;;;2.90;1.27;;;;;;;;;;4985348;28;20025;-67
2022/10/30 14:34:49;;;;;;;3.00;1.20;;;;;;;;;;4986930;28;20065;-66
2022/10/30 14:37:17;;;;;;;1.52;1.02;;;;;;;;;;4987801;28;20043;-68
2022/10/30 14:39:44;;;;;;;2.17;1.10;;;;;;;;;;5002062;28;20037;-68
2022/10/30 14:42:13;;;;;;;2.22;1.13;;;;;;;;;;4986004;28;20022;-66
2022/10/30 14:44:57;;;;;;;1.33;1.23;;;;;;;;;;5018944;28;20447;-67
2022/10/30 14:47:28;;;;;;;1.77;1.00;;;;;;;;;;4975489;28;20107;-66
2022/10/30 14:49:57;;;;;;;2.70;1.00;;;;;;;;;;4992695;28;20033;-67
2022/10/30 14:52:41;;;;;;;1.88;1.15;;;;;;;;;;4985382;28;20038;-67
2022/10/30 14:55:13;;;;;;;1.77;1.30;;;;;;;;;;4987916;28;20122;-65
2022/10/30 14:57:43;;;;;;;2.40;1.50;;;;;;;;;;4993638;28;20140;-66
2022/10/30 15:00:21;;;;;;;4.35;1.50;;;;;;;;;;4984706;28;20040;-67
2022/10/30 15:03:07;;;;;;;4.68;1.30;;;;;;;;;;5000214;28;20491;-67
2022/10/30 15:05:48;;;;;;;1.83;1.23;;;;;;;;;;4983233;28;20049;-67